Time;durP1;ratioP1;P1;durP2;ratioP2;P2;SDS_P1;SDS_P2;PMS_P1;PMS_P2;Temp;Humidity;BMP_temperature;BMP_pressure;BME280_temperature;BME280_humidity;BME280_pressure;Samples;Min_cycle;Max_cycle;Signal;HPM_P1;HPM_P2
2024/04/18 00:00:27;;;;;;;0.00;0.00;;;10.70;74.20;;;;;;5492776;26;19998;-87
2024/04/18 00:02:53;;;;;;;0.10;0.10;;;10.80;74.20;;;;;;5468128;26;19998;-87
2024/04/18 00:05:19;;;;;;;0.10;0.10;;;10.70;74.70;;;;;;5491803;26;20013;-86
2024/04/18 00:07:45;;;;;;;0.10;0.10;;;10.70;75.10;;;;;;5489318;26;20002;-87
2024/04/18 00:10:11;;;;;;;0.10;0.10;;;10.70;75.60;;;;;;5491756;26;20009;-88
2024/04/18 00:12:38;;;;;;;0.10;0.10;;;10.70;76.10;;;;;;5523682;26;20012;-88
2024/04/18 00:15:05;;;;;;;0.10;0.10;;;10.60;76.70;;;;;;5529177;25;20008;-88
2024/04/18 00:17:31;;;;;;;0.10;0.10;;;10.70;76.40;;;;;;5507662;26;20002;-87
2024/04/18 00:19:57;;;;;;;0.10;0.10;;;10.70;76.50;;;;;;5489475;26;20048;-87
2024/04/18 00:22:22;;;;;;;0.10;0.10;;;10.60;76.70;;;;;;5491847;26;20013;-86
2024/04/18 00:24:48;;;;;;;0.10;0.10;;;10.60;77.10;;;;;;5491686;26;20009;-86
2024/04/18 00:27:14;;;;;;;0.10;0.10;;;10.50;77.40;;;;;;5489576;26;20048;-86
2024/04/18 00:29:39;;;;;;;0.10;0.10;;;10.50;77.50;;;;;;5490551;26;20002;-86
2024/04/18 00:32:05;;;;;;;0.10;0.10;;;10.50;77.70;;;;;;5491436;26;20006;-86
2024/04/18 00:34:31;;;;;;;0.00;0.00;;;10.50;77.70;;;;;;5491697;26;20000;-87
2024/04/18 00:36:56;;;;;;;0.10;0.10;;;10.50;77.70;;;;;;5488693;26;20516;-87
2024/04/18 00:39:22;;;;;;;0.10;0.10;;;10.50;77.60;;;;;;5492631;26;19994;-87
2024/04/18 00:41:47;;;;;;;0.00;0.00;;;10.50;77.50;;;;;;5494162;26;20002;-87
2024/04/18 00:44:13;;;;;;;0.10;0.10;;;10.50;77.40;;;;;;5492510;26;20047;-86
2024/04/18 00:46:39;;;;;;;0.10;0.10;;;10.60;77.20;;;;;;5495316;26;20074;-86
2024/04/18 00:49:06;;;;;;;0.10;0.10;;;10.60;77.20;;;;;;5504133;26;19997;-85
2024/04/18 00:51:34;;;;;;;0.10;0.10;;;10.60;77.30;;;;;;5530428;26;20008;-86
2024/04/18 00:54:01;;;;;;;0.00;0.00;;;10.60;77.20;;;;;;5494097;26;20022;-85
2024/04/18 00:56:27;;;;;;;0.10;0.10;;;10.70;77.20;;;;;;5493928;26;19998;-85
2024/04/18 00:58:52;;;;;;;0.10;0.10;;;10.60;77.30;;;;;;5494876;26;20030;-85
2024/04/18 01:01:19;;;;;;;0.10;0.10;;;10.50;77.40;;;;;;5495388;26;19998;-86
2024/04/18 01:03:46;;;;;;;0.10;0.10;;;10.60;77.60;;;;;;5491738;26;20043;-86
2024/04/18 01:06:12;;;;;;;0.10;0.10;;;10.60;77.60;;;;;;5492536;26;20013;-86
2024/04/18 01:08:41;;;;;;;0.10;0.10;;;10.50;77.80;;;;;;5494999;26;20328;-85
2024/04/18 01:11:06;;;;;;;0.10;0.10;;;10.60;77.70;;;;;;5504117;26;20001;-85
2024/04/18 01:13:36;;;;;;;0.10;0.10;;;10.60;77.70;;;;;;5493867;26;20306;-86
2024/04/18 01:16:03;;;;;;;0.10;0.10;;;10.50;77.70;;;;;;5473087;26;20010;-85
2024/04/18 01:18:32;;;;;;;0.10;0.10;;;10.60;77.60;;;;;;5491707;26;20029;-86
2024/04/18 01:20:58;;;;;;;0.10;0.10;;;10.60;77.40;;;;;;5521211;26;20009;-85
2024/04/18 01:23:27;;;;;;;0.10;0.10;;;10.60;77.30;;;;;;5494104;26;19994;-85
2024/04/18 01:25:53;;;;;;;0.00;0.00;;;10.60;77.10;;;;;;5493850;26;20026;-84
2024/04/18 01:28:19;;;;;;;0.00;0.00;;;10.60;77.40;;;;;;5494160;26;20044;-85
2024/04/18 01:30:45;;;;;;;0.10;0.10;;;10.60;77.40;;;;;;5494959;26;19998;-85
2024/04/18 01:33:11;;;;;;;0.10;0.10;;;10.60;77.50;;;;;;5493719;26;20032;-85
2024/04/18 01:35:37;;;;;;;0.10;0.10;;;10.60;77.30;;;;;;5490918;26;20002;-85
2024/04/18 01:38:03;;;;;;;0.10;0.10;;;10.60;77.20;;;;;;5494678;26;20017;-84
2024/04/18 01:40:29;;;;;;;0.10;0.10;;;10.60;77.30;;;;;;5493015;26;20452;-85
2024/04/18 01:42:54;;;;;;;0.10;0.10;;;10.60;77.20;;;;;;5492228;26;20047;-85
2024/04/18 01:45:20;;;;;;;0.10;0.10;;;10.50;77.50;;;;;;5493407;26;20006;-85
2024/04/18 01:47:46;;;;;;;0.10;0.10;;;10.50;77.70;;;;;;5492228;26;20009;-85
2024/04/18 01:50:12;;;;;;;0.00;0.00;;;10.40;78.40;;;;;;5522971;26;20001;-85
2024/04/18 01:52:38;;;;;;;0.10;0.10;;;10.40;78.60;;;;;;5527159;25;20440;-84
2024/04/18 01:55:05;;;;;;;0.00;0.00;;;10.40;78.50;;;;;;5491411;26;20062;-86
2024/04/18 01:57:31;;;;;;;0.00;0.00;;;10.40;78.50;;;;;;5494569;26;19998;-87
2024/04/18 01:59:56;;;;;;;0.10;0.10;;;10.40;78.20;;;;;;5491497;26;20043;-86
2024/04/18 02:02:23;;;;;;;0.10;0.10;;;10.40;78.30;;;;;;5490554;26;19998;-86
2024/04/18 02:04:49;;;;;;;0.10;0.10;;;10.40;78.90;;;;;;5494272;25;20006;-87
2024/04/18 02:07:15;;;;;;;0.10;0.10;;;10.40;79.10;;;;;;5490312;26;19990;-86
2024/04/18 02:09:41;;;;;;;0.10;0.10;;;10.40;79.30;;;;;;5493310;26;20124;-85
2024/04/18 02:12:06;;;;;;;0.10;0.10;;;10.40;79.20;;;;;;5492943;26;20042;-87
2024/04/18 02:14:32;;;;;;;0.00;0.00;;;10.50;78.60;;;;;;5491951;26;20359;-86
2024/04/18 02:16:58;;;;;;;0.10;0.10;;;10.50;78.30;;;;;;5492048;26;19998;-87
2024/04/18 02:19:24;;;;;;;0.10;0.10;;;10.40;78.40;;;;;;5509027;26;20025;-86
2024/04/18 02:21:50;;;;;;;0.10;0.10;;;10.40;78.40;;;;;;5521151;25;20341;-86
2024/04/18 02:24:16;;;;;;;0.10;0.10;;;10.40;78.60;;;;;;5493771;26;19994;-86
2024/04/18 02:26:42;;;;;;;0.10;0.10;;;10.30;78.90;;;;;;5492716;26;20348;-86
2024/04/18 02:29:08;;;;;;;0.10;0.10;;;10.30;78.80;;;;;;5521882;26;20001;-85
2024/04/18 02:31:34;;;;;;;0.10;0.10;;;10.30;79.00;;;;;;5494395;26;20005;-87
2024/04/18 02:33:59;;;;;;;0.10;0.10;;;10.30;79.10;;;;;;5493564;26;19998;-86
2024/04/18 02:36:25;;;;;;;0.10;0.10;;;10.30;78.90;;;;;;5491613;26;20454;-85
2024/04/18 02:38:51;;;;;;;0.10;0.10;;;10.30;78.60;;;;;;5492705;26;19998;-85
2024/04/18 02:41:17;;;;;;;0.10;0.10;;;10.30;78.60;;;;;;5493997;26;20067;-86
2024/04/18 02:43:42;;;;;;;0.10;0.10;;;10.30;78.70;;;;;;5491619;26;20379;-85
2024/04/18 02:46:08;;;;;;;0.10;0.10;;;10.30;78.50;;;;;;5492608;26;20013;-86
2024/04/18 02:48:36;;;;;;;0.10;0.10;;;10.30;78.50;;;;;;5495643;26;20073;-86
2024/04/18 02:51:03;;;;;;;0.10;0.10;;;10.30;78.70;;;;;;5530591;25;19990;-86
2024/04/18 02:53:28;;;;;;;0.10;0.10;;;10.20;78.70;;;;;;5527934;26;20475;-85
2024/04/18 02:55:54;;;;;;;0.10;0.10;;;10.20;78.60;;;;;;5500567;26;20002;-86
2024/04/18 02:58:20;;;;;;;0.10;0.10;;;10.10;78.60;;;;;;5493019;26;20412;-87
2024/04/18 03:00:46;;;;;;;0.10;0.10;;;10.10;78.60;;;;;;5493396;26;20074;-86
2024/04/18 03:03:11;;;;;;;0.00;0.00;;;10.00;78.80;;;;;;5488889;26;20002;-87
2024/04/18 03:05:37;;;;;;;0.10;0.10;;;9.90;79.00;;;;;;5491208;26;20033;-87
2024/04/18 03:08:03;;;;;;;0.10;0.10;;;9.90;78.90;;;;;;5490242;26;20010;-86
2024/04/18 03:10:29;;;;;;;0.10;0.10;;;9.90;78.90;;;;;;5492297;25;19994;-86
2024/04/18 03:12:55;;;;;;;0.10;0.10;;;9.80;78.90;;;;;;5498886;26;20047;-86
2024/04/18 03:15:21;;;;;;;0.00;0.00;;;9.80;79.00;;;;;;5493335;26;19998;-86
2024/04/18 03:17:54;;;;;;;0.10;0.10;;;9.70;78.90;;;;;;5492947;26;20009;-86
2024/04/18 03:20:20;;;;;;;0.10;0.10;;;9.70;79.10;;;;;;5503395;26;20016;-87
2024/04/18 03:22:46;;;;;;;0.10;0.10;;;9.60;79.00;;;;;;5492037;26;20245;-86
2024/04/18 03:25:12;;;;;;;0.10;0.10;;;9.60;79.20;;;;;;5491370;26;20038;-86
2024/04/18 03:27:37;;;;;;;0.10;0.10;;;9.60;79.10;;;;;;5491071;26;20005;-87
2024/04/18 03:30:03;;;;;;;0.10;0.10;;;9.50;79.10;;;;;;5493019;26;19998;-86
2024/04/18 03:32:29;;;;;;;0.10;0.10;;;9.40;79.20;;;;;;5492694;26;20059;-85
2024/04/18 03:34:54;;;;;;;0.10;0.10;;;9.30;79.10;;;;;;5493100;26;20013;-86
2024/04/18 03:37:20;;;;;;;0.10;0.10;;;9.30;79.20;;;;;;5491775;26;20022;-86
2024/04/18 03:39:46;;;;;;;0.00;0.00;;;9.20;79.30;;;;;;5490062;26;20008;-86
2024/04/18 03:42:12;;;;;;;0.00;0.00;;;9.20;79.70;;;;;;5490068;26;19998;-86
2024/04/18 03:44:38;;;;;;;0.10;0.10;;;9.20;79.60;;;;;;5490055;26;19994;-86
2024/04/18 03:47:03;;;;;;;0.10;0.10;;;9.20;79.80;;;;;;5489792;26;19998;-85
2024/04/18 03:49:29;;;;;;;0.08;0.08;;;9.20;79.70;;;;;;5511041;26;20009;-86
2024/04/18 03:51:55;;;;;;;0.10;0.10;;;9.10;79.90;;;;;;5529187;26;20005;-86
2024/04/18 03:54:21;;;;;;;0.10;0.10;;;9.00;79.90;;;;;;5527880;26;20004;-86
2024/04/18 03:56:48;;;;;;;0.10;0.10;;;9.00;79.60;;;;;;5504881;26;20002;-86
2024/04/18 03:59:13;;;;;;;0.10;0.10;;;9.00;79.60;;;;;;5489543;26;20002;-86
2024/04/18 04:01:39;;;;;;;0.10;0.10;;;8.90;79.60;;;;;;5491719;26;20429;-86
2024/04/18 04:04:06;;;;;;;0.10;0.10;;;8.90;79.60;;;;;;5491439;26;20016;-87
2024/04/18 04:06:31;;;;;;;0.10;0.10;;;8.90;79.50;;;;;;5489725;26;19998;-86
2024/04/18 04:08:57;;;;;;;0.10;0.10;;;8.80;79.50;;;;;;5492277;26;20009;-86
2024/04/18 04:11:23;;;;;;;0.10;0.10;;;8.70;79.60;;;;;;5502364;26;20001;-86
2024/04/18 04:13:48;;;;;;;0.10;0.10;;;8.70;79.60;;;;;;5491803;26;20009;-86
2024/04/18 04:16:14;;;;;;;0.00;0.00;;;8.70;79.80;;;;;;5493270;26;20073;-87
2024/04/18 04:18:40;;;;;;;0.10;0.10;;;8.70;79.60;;;;;;5501268;26;20452;-86
2024/04/18 04:21:07;;;;;;;0.10;0.10;;;8.70;79.80;;;;;;5521109;26;19990;-87
2024/04/18 04:23:33;;;;;;;0.00;0.00;;;8.70;79.90;;;;;;5494060;26;20026;-86
2024/04/18 04:25:58;;;;;;;0.10;0.10;;;8.70;79.60;;;;;;5495536;26;19998;-86
2024/04/18 04:28:24;;;;;;;0.10;0.10;;;8.70;79.10;;;;;;5490006;26;20014;-86
2024/04/18 04:30:50;;;;;;;0.10;0.10;;;8.70;79.30;;;;;;5495808;26;20002;-86
2024/04/18 04:33:15;;;;;;;0.10;0.10;;;8.60;79.20;;;;;;5480083;26;19994;-86
2024/04/18 04:35:41;;;;;;;0.10;0.10;;;8.60;79.20;;;;;;5463338;26;20071;-86
2024/04/18 04:38:07;;;;;;;0.00;0.00;;;8.50;79.40;;;;;;5492417;26;20029;-86
2024/04/18 04:40:32;;;;;;;0.00;0.00;;;8.40;79.40;;;;;;5495417;26;20017;-86
2024/04/18 04:42:58;;;;;;;0.10;0.10;;;8.40;79.40;;;;;;5495089;26;19998;-86
2024/04/18 04:45:24;;;;;;;0.10;0.10;;;8.40;79.60;;;;;;5495229;26;19998;-86
2024/04/18 04:47:50;;;;;;;0.10;0.10;;;8.30;79.60;;;;;;5492993;26;20013;-85
2024/04/18 04:50:16;;;;;;;0.10;0.10;;;8.30;79.90;;;;;;5493739;26;20013;-83
2024/04/18 04:52:41;;;;;;;0.10;0.10;;;8.40;79.70;;;;;;5495419;26;20333;-84
2024/04/18 04:55:07;;;;;;;0.10;0.10;;;8.50;79.40;;;;;;5495351;26;20074;-86
2024/04/18 04:57:32;;;;;;;0.10;0.10;;;8.50;79.20;;;;;;5492988;26;20071;-84
2024/04/18 04:59:58;;;;;;;0.10;0.10;;;8.50;79.00;;;;;;5494203;26;20433;-77
2024/04/18 05:02:24;;;;;;;0.10;0.10;;;8.40;79.10;;;;;;5492119;26;20002;-79
2024/04/18 05:04:50;;;;;;;0.10;0.10;;;8.40;79.20;;;;;;5492196;26;20051;-78
2024/04/18 05:07:16;;;;;;;0.10;0.10;;;8.30;79.40;;;;;;5466532;26;20016;-78
2024/04/18 05:09:41;;;;;;;0.10;0.10;;;8.30;79.20;;;;;;5457024;26;20003;-76
2024/04/18 05:12:07;;;;;;;0.00;0.00;;;8.30;78.90;;;;;;5500131;26;19998;-77
2024/04/18 05:14:33;;;;;;;0.10;0.10;;;8.20;79.20;;;;;;5461325;26;20360;-75
2024/04/18 05:16:58;;;;;;;0.10;0.10;;;8.30;79.10;;;;;;5458248;26;20724;-77
2024/04/18 05:19:24;;;;;;;0.10;0.10;;;8.20;78.90;;;;;;5492409;26;20021;-77
2024/04/18 05:21:49;;;;;;;0.10;0.10;;;8.20;78.70;;;;;;5495505;26;20013;-76
2024/04/18 05:24:15;;;;;;;0.05;0.05;;;8.20;78.80;;;;;;5492696;26;20009;-76
2024/04/18 05:26:41;;;;;;;0.10;0.10;;;8.10;78.80;;;;;;5493214;26;20336;-76
2024/04/18 05:31:51;;;;;;;0.00;0.00;;;8.20;78.60;;;;;;5490030;26;20017;-75
2024/04/18 05:34:16;;;;;;;0.10;0.10;;;8.30;78.30;;;;;;5464423;26;19994;-76
2024/04/18 05:36:48;;;;;;;0.10;0.10;;;8.30;78.10;;;;;;5493799;26;20009;-76
2024/04/18 05:39:13;;;;;;;0.10;0.10;;;8.30;77.90;;;;;;5492580;26;20078;-76
2024/04/18 05:41:39;;;;;;;0.10;0.10;;;8.30;78.10;;;;;;5462735;26;19995;-77
2024/04/18 05:44:04;;;;;;;0.10;0.10;;;8.30;77.90;;;;;;5487877;26;19999;-75
2024/04/18 05:46:31;;;;;;;0.10;0.10;;;8.30;77.80;;;;;;5485647;26;20010;-76
2024/04/18 05:48:57;;;;;;;0.10;0.10;;;8.40;77.70;;;;;;5492454;26;19998;-79
2024/04/18 05:51:22;;;;;;;0.10;0.10;;;8.40;77.60;;;;;;5489977;26;20048;-79
2024/04/18 05:53:48;;;;;;;0.10;0.10;;;8.40;77.50;;;;;;5487114;26;19997;-79
2024/04/18 05:56:14;;;;;;;0.10;0.10;;;8.50;77.40;;;;;;5489714;26;19994;-79
2024/04/18 05:58:44;;;;;;;0.10;0.10;;;8.50;77.30;;;;;;5490294;26;19990;-79
2024/04/18 06:01:10;;;;;;;0.10;0.10;;;8.40;77.30;;;;;;5487813;26;20001;-79
2024/04/18 06:03:35;;;;;;;0.10;0.10;;;8.50;77.30;;;;;;5490163;26;19998;-80
2024/04/18 06:06:01;;;;;;;0.10;0.10;;;8.50;77.20;;;;;;5492093;26;20047;-79
2024/04/18 06:08:27;;;;;;;0.10;0.10;;;8.40;77.20;;;;;;5492813;26;20447;-79
2024/04/18 06:10:53;;;;;;;0.10;0.10;;;8.40;77.30;;;;;;5521406;26;20018;-79
2024/04/18 06:13:20;;;;;;;0.10;0.10;;;8.50;77.30;;;;;;5522985;26;20006;-79
2024/04/18 06:15:47;;;;;;;0.10;0.10;;;8.50;77.20;;;;;;5494095;26;20333;-79
2024/04/18 06:18:13;;;;;;;0.10;0.10;;;8.50;77.10;;;;;;5490441;26;20006;-79
2024/04/18 06:20:44;;;;;;;0.10;0.10;;;8.60;76.90;;;;;;5530328;26;19993;-79
2024/04/18 06:23:10;;;;;;;0.10;0.10;;;8.60;76.80;;;;;;5521882;25;20001;-79
2024/04/18 06:25:37;;;;;;;0.10;0.10;;;8.60;76.90;;;;;;5494298;26;20011;-79
2024/04/18 06:28:11;;;;;;;0.10;0.10;;;8.60;76.90;;;;;;5492036;26;19990;-79
2024/04/18 06:30:38;;;;;;;0.10;0.10;;;8.60;77.00;;;;;;5485490;26;20104;-79
2024/04/18 06:33:05;;;;;;;0.10;0.10;;;8.60;77.10;;;;;;5457338;26;19994;-79
2024/04/18 06:35:30;;;;;;;0.10;0.10;;;8.60;77.10;;;;;;5460533;26;19995;-79
2024/04/18 06:37:56;;;;;;;0.10;0.10;;;8.60;77.10;;;;;;5492583;26;20013;-79
2024/04/18 06:40:23;;;;;;;0.10;0.10;;;8.60;77.00;;;;;;5483223;26;20017;-79
2024/04/18 06:42:52;;;;;;;0.10;0.10;;;8.70;77.10;;;;;;5455574;26;20010;-79
2024/04/18 06:45:21;;;;;;;0.10;0.10;;;8.60;77.30;;;;;;5457308;26;20049;-79
2024/04/18 06:47:46;;;;;;;0.10;0.10;;;8.70;77.20;;;;;;5470198;26;20009;-79
2024/04/18 06:50:12;;;;;;;0.10;0.10;;;8.60;77.40;;;;;;5522820;26;20427;-79
2024/04/18 06:52:38;;;;;;;0.10;0.10;;;8.70;77.20;;;;;;5528759;26;20001;-79
2024/04/18 06:55:04;;;;;;;0.10;0.10;;;8.80;77.10;;;;;;5516795;26;20500;-79
2024/04/18 06:57:29;;;;;;;0.10;0.10;;;8.80;77.10;;;;;;5491852;26;20013;-79
2024/04/18 06:59:55;;;;;;;0.10;0.10;;;8.90;76.70;;;;;;5492016;26;19998;-80
2024/04/18 07:02:21;;;;;;;0.10;0.10;;;8.90;76.80;;;;;;5492112;26;20006;-79
2024/04/18 07:04:46;;;;;;;0.10;0.10;;;8.90;76.90;;;;;;5487853;26;20403;-79
2024/04/18 07:07:13;;;;;;;0.10;0.10;;;8.90;76.90;;;;;;5489032;26;20463;-79
2024/04/18 07:09:39;;;;;;;0.10;0.10;;;9.00;76.60;;;;;;5491587;26;20039;-79
2024/04/18 07:12:06;;;;;;;0.10;0.10;;;9.00;76.50;;;;;;5515325;26;19997;-80
2024/04/18 07:14:31;;;;;;;0.10;0.10;;;9.20;76.50;;;;;;5505836;25;20078;-80
2024/04/18 07:16:57;;;;;;;0.10;0.10;;;9.30;76.10;;;;;;5493549;26;20006;-79
2024/04/18 07:19:23;;;;;;;0.10;0.10;;;9.40;75.70;;;;;;5496452;26;20002;-79
2024/04/18 07:21:48;;;;;;;0.10;0.10;;;9.40;75.80;;;;;;5492850;26;19994;-79
2024/04/18 07:24:14;;;;;;;0.10;0.10;;;9.50;75.60;;;;;;5492994;26;20002;-79
2024/04/18 07:26:40;;;;;;;0.10;0.10;;;10.10;74.80;;;;;;5490270;26;19990;-79
2024/04/18 07:29:05;;;;;;;0.10;0.10;;;10.40;73.80;;;;;;5492684;26;20031;-79
2024/04/18 07:31:31;;;;;;;0.20;0.20;;;10.80;72.60;;;;;;5492212;26;20010;-79
2024/04/18 07:33:56;;;;;;;0.10;0.10;;;11.20;71.90;;;;;;5486913;26;20022;-79
2024/04/18 07:36:22;;;;;;;0.20;0.20;;;11.50;70.20;;;;;;5471847;26;20505;-79
2024/04/18 07:38:51;;;;;;;0.30;0.30;;;11.40;69.90;;;;;;5491015;26;19994;-78
2024/04/18 07:41:17;;;;;;;0.20;0.20;;;11.80;69.40;;;;;;5492764;26;20466;-78
2024/04/18 07:43:43;;;;;;;0.10;0.10;;;12.40;67.80;;;;;;5490804;26;19998;-79
2024/04/18 07:46:09;;;;;;;0.20;0.20;;;13.00;66.30;;;;;;5492757;26;20456;-79
2024/04/18 07:48:34;;;;;;;0.30;0.30;;;13.50;64.70;;;;;;5494899;26;20440;-79
2024/04/18 07:51:00;;;;;;;0.30;0.30;;;14.30;62.90;;;;;;5529179;26;20005;-80
2024/04/18 07:53:26;;;;;;;0.40;0.40;;;16.40;58.50;;;;;;5521158;26;20054;-80
2024/04/18 07:55:52;;;;;;;0.50;0.50;;;19.10;52.30;;;;;;5490482;26;19995;-80
2024/04/18 07:58:17;;;;;;;0.50;0.50;;;21.30;46.90;;;;;;5521637;26;20028;-81
2024/04/18 08:00:43;;;;;;;0.60;0.60;;;22.80;42.80;;;;;;5488630;26;19998;-81
2024/04/18 08:03:09;;;;;;;0.60;0.60;;;24.00;40.70;;;;;;5492075;26;20014;-81
2024/04/18 08:05:35;;;;;;;0.60;0.60;;;24.80;37.50;;;;;;5492687;26;20361;-81
2024/04/18 08:08:01;;;;;;;0.60;0.60;;;25.70;36.10;;;;;;5491151;26;20021;-81
2024/04/18 08:10:26;;;;;;;0.60;0.60;;;26.40;34.60;;;;;;5492335;26;20010;-81
2024/04/18 08:12:52;;;;;;;0.80;0.80;;;27.00;33.70;;;;;;5517717;26;20328;-81
2024/04/18 08:15:18;;;;;;;0.80;0.80;;;27.40;31.70;;;;;;5492049;26;20344;-81
2024/04/18 08:17:43;;;;;;;0.80;0.80;;;27.90;31.30;;;;;;5491649;26;20332;-81
2024/04/18 08:20:10;;;;;;;0.80;0.80;;;28.10;29.50;;;;;;5491959;26;19998;-81
2024/04/18 08:22:36;;;;;;;0.90;0.90;;;28.40;29.20;;;;;;5483520;26;20007;-81
2024/04/18 08:25:03;;;;;;;1.00;1.00;;;28.70;29.10;;;;;;5455331;26;20454;-81
2024/04/18 08:27:29;;;;;;;1.00;1.00;;;28.90;28.70;;;;;;5486197;26;20002;-81
2024/04/18 08:29:54;;;;;;;1.00;1.00;;;29.40;28.70;;;;;;5490409;26;20046;-81
2024/04/18 08:32:20;;;;;;;1.00;1.00;;;29.80;27.40;;;;;;5490764;26;20394;-81
2024/04/18 08:34:46;;;;;;;1.10;1.10;;;30.00;27.10;;;;;;5490017;26;20614;-80
2024/04/18 08:37:12;;;;;;;1.10;1.10;;;30.20;26.30;;;;;;5489695;26;20002;-80
2024/04/18 08:39:38;;;;;;;1.00;1.00;;;30.30;25.70;;;;;;5491901;26;20452;-78
2024/04/18 08:42:06;;;;;;;1.00;1.00;;;29.90;25.50;;;;;;5490661;26;19994;-82
2024/04/18 08:44:32;;;;;;;1.00;1.00;;;30.10;24.90;;;;;;5491442;26;20474;-79
2024/04/18 08:47:00;;;;;;;1.00;1.00;;;30.30;25.60;;;;;;5489766;26;20468;-80
2024/04/18 08:49:27;;;;;;;0.95;0.95;;;30.40;25.80;;;;;;5507510;26;20002;-79
2024/04/18 08:51:53;;;;;;;1.00;1.00;;;30.40;25.60;;;;;;5500109;26;20003;-79
2024/04/18 08:54:20;;;;;;;1.00;1.00;;;30.30;25.40;;;;;;5455235;26;20101;-79
2024/04/18 08:56:53;;;;;;;1.00;1.00;;;30.10;24.60;;;;;;5482436;26;19994;-79
2024/04/18 08:59:22;;;;;;;0.90;0.90;;;29.90;25.70;;;;;;5453781;26;20018;-81
2024/04/18 09:01:48;;;;;;;0.90;0.90;;;29.50;25.40;;;;;;5458853;26;20007;-80
2024/04/18 09:04:14;;;;;;;0.90;0.90;;;29.50;25.90;;;;;;5460980;26;20318;-80
2024/04/18 09:06:39;;;;;;;0.80;0.80;;;29.40;26.10;;;;;;5494893;26;20051;-80
2024/04/18 09:09:13;;;;;;;1.00;1.00;;;29.30;25.50;;;;;;5495470;26;19998;-80
2024/04/18 09:11:39;;;;;;;0.40;0.40;;;29.70;25.60;;;;;;5509948;26;19997;-80
2024/04/18 09:14:06;;;;;;;1.00;1.00;;;29.60;24.80;;;;;;5496005;26;20070;-80
2024/04/18 09:16:32;;;;;;;1.10;1.10;;;29.30;25.70;;;;;;5494781;26;20405;-80
2024/04/18 09:18:59;;;;;;;1.10;1.10;;;29.50;25.30;;;;;;5504511;26;19997;-80
2024/04/18 09:21:29;;;;;;;1.00;1.00;;;29.80;25.50;;;;;;5531863;25;20018;-80
2024/04/18 09:23:54;;;;;;;1.00;1.00;;;28.70;24.20;;;;;;5530022;26;20008;-80
2024/04/18 09:26:20;;;;;;;1.13;1.13;;;28.60;26.00;;;;;;5516574;26;20002;-80
2024/04/18 09:28:46;;;;;;;1.10;1.10;;;29.10;25.70;;;;;;5495059;26;19998;-80
2024/04/18 09:31:12;;;;;;;1.10;1.10;;;29.00;25.20;;;;;;5494497;26;20012;-80
2024/04/18 09:33:38;;;;;;;1.10;1.10;;;29.00;25.10;;;;;;5491482;26;20005;-79
2024/04/18 09:36:04;;;;;;;0.43;0.43;;;28.10;26.80;;;;;;5494564;26;19994;-80
2024/04/18 09:38:34;;;;;;;0.10;0.10;;;28.30;27.10;;;;;;5492870;26;19994;-79
2024/04/18 09:41:15;;;;;;;0.20;0.20;;;27.90;27.40;;;;;;5493323;26;20073;-79
2024/04/18 09:43:56;;;;;;;0.40;0.40;;;26.50;28.60;;;;;;5484712;26;20003;-79
2024/04/18 09:46:23;;;;;;;0.15;0.15;;;26.10;29.20;;;;;;5476928;26;20010;-79
2024/04/18 09:48:50;;;;;;;0.35;0.35;;;26.50;28.10;;;;;;5501747;26;20008;-79
2024/04/18 09:51:16;;;;;;;0.10;0.10;;;25.30;29.40;;;;;;5494295;26;19998;-79
2024/04/18 09:53:45;;;;;;;0.00;0.00;;;24.00;30.40;;;;;;5494761;26;19994;-79
2024/04/18 09:56:11;;;;;;;0.90;0.90;;;23.40;31.00;;;;;;5491692;26;20017;-79
2024/04/18 09:58:38;;;;;;;0.00;0.00;;;23.30;33.30;;;;;;5523548;26;20002;-79
2024/04/18 10:01:04;;;;;;;0.80;0.80;;;23.70;30.70;;;;;;5491245;26;20012;-79
2024/04/18 10:03:30;;;;;;;0.68;0.68;;;24.10;30.30;;;;;;5494501;26;19994;-79
2024/04/18 10:05:59;;;;;;;0.70;0.70;;;24.80;31.20;;;;;;5490556;26;20006;-79
2024/04/18 10:08:29;;;;;;;0.10;0.10;;;24.70;31.80;;;;;;5493846;26;20033;-78
2024/04/18 10:10:58;;;;;;;0.30;0.30;;;24.60;30.50;;;;;;5499660;26;20008;-84
2024/04/18 10:13:24;;;;;;;0.30;0.30;;;24.10;31.70;;;;;;5503682;26;19990;-79
2024/04/18 10:15:49;;;;;;;0.00;0.00;;;23.50;31.60;;;;;;5476036;26;20487;-80
2024/04/18 10:18:17;;;;;;;0.70;0.70;;;22.70;33.00;;;;;;5457530;26;20009;-79
2024/04/18 10:20:46;;;;;;;0.10;0.10;;;23.20;32.50;;;;;;5530982;25;20008;-79
2024/04/18 10:23:15;;;;;;;0.10;0.10;;;22.90;32.70;;;;;;5512140;26;19998;-79
2024/04/18 10:25:43;;;;;;;0.03;0.03;;;22.80;32.10;;;;;;5494418;26;19998;-79
2024/04/18 10:28:19;;;;;;;0.10;0.10;;;22.30;33.10;;;;;;5491947;26;20010;-79
2024/04/18 10:30:45;;;;;;;0.00;0.00;;;21.30;35.10;;;;;;5493020;26;20009;-79
2024/04/18 10:33:10;;;;;;;0.00;0.00;;;21.00;35.40;;;;;;5493714;26;19998;-79
2024/04/18 10:35:36;;;;;;;0.00;0.00;;;20.70;35.10;;;;;;5493719;26;20328;-79
2024/04/18 10:38:03;;;;;;;0.10;0.10;;;20.40;35.50;;;;;;5485022;26;20014;-80
2024/04/18 10:40:29;;;;;;;0.10;0.10;;;20.40;37.30;;;;;;5491996;26;19998;-81
2024/04/18 10:43:27;;;;;;;0.10;0.10;;;20.50;36.80;;;;;;5493678;26;20013;-78
2024/04/18 10:45:56;;;;;;;0.00;0.00;;;20.80;37.60;;;;;;5416366;26;20027;-82
2024/04/18 10:48:22;;;;;;;0.10;0.10;;;20.80;36.50;;;;;;5458185;26;20013;-81
2024/04/18 10:50:50;;;;;;;0.10;0.10;;;20.30;36.80;;;;;;5530115;26;20002;-79
2024/04/18 10:53:16;;;;;;;0.00;0.00;;;20.30;37.40;;;;;;5500848;26;20854;-78
2024/04/18 10:55:42;;;;;;;0.10;0.10;;;20.10;37.60;;;;;;5486140;26;20006;-76
2024/04/18 10:58:17;;;;;;;0.10;0.10;;;20.10;37.30;;;;;;5469751;26;19994;-79
2024/04/18 11:00:43;;;;;;;0.00;0.00;;;20.10;36.60;;;;;;5492108;26;20028;-77
2024/04/18 11:03:09;;;;;;;0.00;0.00;;;20.00;37.30;;;;;;5492044;26;20066;-80
2024/04/18 11:05:37;;;;;;;0.10;0.10;;;19.90;37.40;;;;;;5493601;26;19994;-80
2024/04/18 11:08:09;;;;;;;0.10;0.10;;;19.70;37.40;;;;;;5490768;26;20005;-81
2024/04/18 11:10:37;;;;;;;0.10;0.10;;;19.40;37.60;;;;;;5494168;26;20002;-80
2024/04/18 11:13:03;;;;;;;0.10;0.10;;;19.40;37.70;;;;;;5512806;25;20346;-79
2024/04/18 11:15:30;;;;;;;0.10;0.10;;;19.40;37.90;;;;;;5468170;26;19994;-79
2024/04/18 11:17:56;;;;;;;0.10;0.10;;;19.60;37.50;;;;;;5457978;26;20430;-80
2024/04/18 11:20:23;;;;;;;0.10;0.10;;;19.20;38.50;;;;;;5523153;26;19998;-80
2024/04/18 11:22:48;;;;;;;0.00;0.00;;;19.10;38.60;;;;;;5519891;25;20002;-77
2024/04/18 11:25:14;;;;;;;0.03;0.03;;;18.90;39.50;;;;;;5490826;26;20074;-77
2024/04/18 11:27:40;;;;;;;0.10;0.10;;;18.90;39.30;;;;;;5491901;26;20382;-78
2024/04/18 11:30:13;;;;;;;0.10;0.10;;;18.80;39.60;;;;;;5492888;26;20009;-76
2024/04/18 11:32:39;;;;;;;0.10;0.10;;;18.90;40.10;;;;;;5493098;26;20008;-78
2024/04/18 11:35:05;;;;;;;0.10;0.10;;;18.90;39.50;;;;;;5491942;26;20002;-78
2024/04/18 11:37:37;;;;;;;0.00;0.00;;;19.10;40.10;;;;;;5492861;26;20051;-79
2024/04/18 11:40:09;;;;;;;0.03;0.03;;;18.80;39.80;;;;;;5461485;26;20002;-76
2024/04/18 11:42:35;;;;;;;0.10;0.10;;;18.60;39.70;;;;;;5490793;26;20008;-77
2024/04/18 11:45:00;;;;;;;0.00;0.00;;;18.80;40.30;;;;;;5492978;26;19998;-76
2024/04/18 11:47:26;;;;;;;0.10;0.10;;;18.80;41.20;;;;;;5491752;26;19991;-76
2024/04/18 11:49:52;;;;;;;0.10;0.10;;;18.80;40.10;;;;;;5502041;26;20002;-77
2024/04/18 11:52:17;;;;;;;0.10;0.10;;;18.90;38.90;;;;;;5492390;26;19998;-75
2024/04/18 11:54:43;;;;;;;0.10;0.10;;;19.10;39.70;;;;;;5521670;26;20002;-76
2024/04/18 11:57:09;;;;;;;0.10;0.10;;;19.20;38.00;;;;;;5491041;26;20006;-76
2024/04/18 11:59:37;;;;;;;0.10;0.10;;;19.30;37.50;;;;;;5490824;26;20074;-78
2024/04/18 12:02:04;;;;;;;0.10;0.10;;;19.30;38.60;;;;;;5492644;26;20409;-77
2024/04/18 12:04:29;;;;;;;0.00;0.00;;;19.10;38.70;;;;;;5490974;25;19990;-77
2024/04/18 12:06:55;;;;;;;0.00;0.00;;;18.90;39.50;;;;;;5490324;26;19998;-78
2024/04/18 12:09:21;;;;;;;0.00;0.00;;;18.80;39.50;;;;;;5492619;26;20001;-78
2024/04/18 12:11:46;;;;;;;0.00;0.00;;;18.70;39.80;;;;;;5501971;26;20002;-78
2024/04/18 12:14:12;;;;;;;0.00;0.00;;;18.30;40.00;;;;;;5488697;26;20010;-78
2024/04/18 12:16:38;;;;;;;0.10;0.10;;;18.30;40.60;;;;;;5492020;26;20810;-78
2024/04/18 12:19:04;;;;;;;0.10;0.10;;;18.70;39.30;;;;;;5503033;26;19994;-78
2024/04/18 12:21:29;;;;;;;0.00;0.00;;;18.80;40.10;;;;;;5529026;26;20069;-78
2024/04/18 12:23:55;;;;;;;0.10;0.10;;;18.80;39.50;;;;;;5526861;26;19997;-78
2024/04/18 12:26:21;;;;;;;0.00;0.00;;;18.70;41.00;;;;;;5524574;26;20064;-78
2024/04/18 12:28:46;;;;;;;0.10;0.10;;;18.70;40.00;;;;;;5489428;26;20078;-78
2024/04/18 12:31:12;;;;;;;0.10;0.10;;;18.70;41.80;;;;;;5488511;26;20513;-78
2024/04/18 12:33:38;;;;;;;0.10;0.10;;;18.70;40.10;;;;;;5491940;26;19995;-78
2024/04/18 12:36:05;;;;;;;0.10;0.10;;;19.00;38.40;;;;;;5492353;26;20456;-78
2024/04/18 12:38:30;;;;;;;0.10;0.10;;;19.10;39.00;;;;;;5495686;26;20589;-76
2024/04/18 12:40:56;;;;;;;0.00;0.00;;;19.20;39.50;;;;;;5476652;26;19999;-83
2024/04/18 12:43:22;;;;;;;0.10;0.10;;;19.30;39.70;;;;;;5492700;26;20099;-78
2024/04/18 12:45:47;;;;;;;0.03;0.03;;;19.30;37.80;;;;;;5493334;26;20028;-78
2024/04/18 12:48:13;;;;;;;0.00;0.00;;;19.20;37.20;;;;;;5494478;26;20010;-78